Time;durP1;ratioP1;P1;durP2;ratioP2;P2;SDS_P1;SDS_P2;PMS_P1;PMS_P2;Temp;Humidity;BMP_temperature;BMP_pressure;BME280_temperature;BME280_humidity;BME280_pressure;Samples;Min_cycle;Max_cycle;Signal;HPM_P1;HPM_P2
2020/12/15 00:02:21;;;;;;;3.67;3.38;;;10.00;39.80;;;;;;5051944;28;20388;-74
2020/12/15 00:04:47;;;;;;;3.10;2.90;;;10.00;40.30;;;;;;5052729;28;20401;-72
2020/12/15 00:07:12;;;;;;;4.97;3.30;;;9.90;40.40;;;;;;5052755;28;20385;-72
2020/12/15 00:09:38;;;;;;;7.37;3.80;;;10.00;40.30;;;;;;5040121;28;20393;-73
2020/12/15 00:12:03;;;;;;;4.77;3.33;;;9.90;40.80;;;;;;5058119;28;20886;-75
2020/12/15 00:14:29;;;;;;;3.93;3.20;;;9.90;40.40;;;;;;5057161;28;20382;-74
2020/12/15 00:16:58;;;;;;;6.57;3.20;;;9.90;41.30;;;;;;5038294;28;20751;-72
2020/12/15 00:19:24;;;;;;;4.10;3.08;;;9.90;42.20;;;;;;5056195;28;20396;-73
2020/12/15 00:21:51;;;;;;;3.20;2.90;;;9.90;41.00;;;;;;5057406;28;20409;-73
2020/12/15 00:24:17;;;;;;;5.20;2.90;;;10.00;40.20;;;;;;5057454;28;20378;-72
2020/12/15 00:26:42;;;;;;;4.68;3.42;;;10.00;40.60;;;;;;5057332;28;20431;-72
2020/12/15 00:29:12;;;;;;;4.80;3.50;;;10.00;41.20;;;;;;5057736;28;20770;-72
2020/12/15 00:31:37;;;;;;;3.30;3.00;;;10.00;42.60;;;;;;5057713;28;20405;-73
2020/12/15 00:34:03;;;;;;;5.17;3.57;;;10.00;43.30;;;;;;5054441;28;20442;-72
2020/12/15 00:36:29;;;;;;;4.65;3.20;;;9.90;44.50;;;;;;5052842;28;20393;-72
2020/12/15 00:38:55;;;;;;;4.10;3.60;;;9.80;46.80;;;;;;5052318;28;20386;-71
2020/12/15 00:41:20;;;;;;;3.60;3.30;;;9.80;48.20;;;;;;5052402;28;20397;-71
2020/12/15 00:43:47;;;;;;;6.00;3.80;;;9.80;49.40;;;;;;5052550;28;20852;-72
2020/12/15 00:46:14;;;;;;;8.00;3.55;;;9.70;50.60;;;;;;5052029;28;20397;-71
2020/12/15 00:48:40;;;;;;;4.95;3.17;;;9.60;52.80;;;;;;5051895;28;20404;-72
2020/12/15 00:51:06;;;;;;;4.05;3.65;;;9.50;54.80;;;;;;5052445;28;20405;-73
2020/12/15 00:53:32;;;;;;;6.17;3.80;;;9.50;56.00;;;;;;5052231;28;20389;-71
2020/12/15 00:55:57;;;;;;;3.93;3.53;;;9.40;56.60;;;;;;5052293;28;20398;-72
2020/12/15 00:58:23;;;;;;;7.03;3.63;;;9.50;56.10;;;;;;5051415;28;20450;-72
2020/12/15 01:00:49;;;;;;;5.20;3.70;;;9.40;57.70;;;;;;5052242;28;20382;-72
2020/12/15 01:03:14;;;;;;;5.90;3.90;;;9.30;58.80;;;;;;5052076;28;20388;-71
2020/12/15 01:05:40;;;;;;;5.30;3.67;;;9.30;60.00;;;;;;5053446;28;20400;-73
2020/12/15 01:08:05;;;;;;;4.50;3.67;;;9.30;60.90;;;;;;5056705;28;20385;-71
2020/12/15 01:10:31;;;;;;;5.07;3.87;;;9.20;61.70;;;;;;5056782;28;20382;-73
2020/12/15 01:12:56;;;;;;;3.87;3.47;;;9.10;64.60;;;;;;5052598;28;20914;-72
2020/12/15 01:15:22;;;;;;;7.00;4.10;;;9.10;64.80;;;;;;5053058;28;20385;-72
2020/12/15 01:17:47;;;;;;;5.50;3.50;;;9.00;66.00;;;;;;5055215;28;20381;-72
2020/12/15 01:20:13;;;;;;;6.47;4.30;;;8.90;67.10;;;;;;5056947;28;20475;-72
2020/12/15 01:22:39;;;;;;;5.28;4.03;;;8.90;68.50;;;;;;5057152;28;20750;-72
2020/12/15 01:25:04;;;;;;;6.00;3.90;;;8.90;69.60;;;;;;5056953;28;20465;-73
2020/12/15 01:27:30;;;;;;;6.50;4.00;;;8.90;70.20;;;;;;5055272;28;20439;-72
2020/12/15 01:29:55;;;;;;;5.50;3.93;;;8.80;71.20;;;;;;5055749;28;20393;-72
2020/12/15 01:32:21;;;;;;;6.63;3.97;;;8.80;72.30;;;;;;5051845;28;20766;-71
2020/12/15 01:34:46;;;;;;;6.10;4.20;;;8.80;74.30;;;;;;5051619;28;21064;-71
2020/12/15 01:37:12;;;;;;;5.60;3.80;;;8.60;76.90;;;;;;5033500;28;20862;-72
2020/12/15 01:39:37;;;;;;;6.27;4.27;;;8.60;77.40;;;;;;5033639;28;20408;-72
2020/12/15 01:42:03;;;;;;;5.30;3.90;;;8.60;77.90;;;;;;5050831;28;20393;-73
2020/12/15 01:44:28;;;;;;;4.33;3.93;;;8.60;77.90;;;;;;5051152;28;20405;-72
2020/12/15 01:46:54;;;;;;;7.30;4.07;;;8.60;77.50;;;;;;5050857;28;20431;-72
2020/12/15 01:49:20;;;;;;;5.67;4.00;;;8.60;78.70;;;;;;5051159;28;20426;-71
2020/12/15 01:51:46;;;;;;;4.63;4.00;;;8.60;78.50;;;;;;5051233;28;20487;-71
2020/12/15 01:54:12;;;;;;;6.10;4.32;;;8.60;79.60;;;;;;5050622;28;20870;-71
2020/12/15 01:56:38;;;;;;;5.00;4.13;;;8.50;79.40;;;;;;5050830;28;20458;-73
2020/12/15 01:59:04;;;;;;;5.72;4.80;;;8.50;79.90;;;;;;5050854;28;20468;-72
2020/12/15 02:01:41;;;;;;;5.00;4.18;;;8.50;79.20;;;;;;5050935;28;20542;-74
2020/12/15 02:04:06;;;;;;;9.73;4.18;;;8.50;80.10;;;;;;5050890;28;20400;-72
2020/12/15 02:06:32;;;;;;;8.00;4.28;;;8.40;80.50;;;;;;5051031;28;20390;-73
2020/12/15 02:08:58;;;;;;;5.13;4.63;;;8.40;81.80;;;;;;5050134;28;20393;-72
2020/12/15 02:11:24;;;;;;;4.10;3.70;;;8.40;82.40;;;;;;5050756;28;20412;-72
2020/12/15 02:13:49;;;;;;;6.40;4.40;;;8.50;80.50;;;;;;5051019;28;20381;-72
2020/12/15 02:16:15;;;;;;;6.10;4.45;;;8.50;80.20;;;;;;5050804;28;20389;-72
2020/12/15 02:18:41;;;;;;;6.68;4.32;;;8.50;81.30;;;;;;5050496;28;20386;-71
2020/12/15 02:21:08;;;;;;;4.45;4.03;;;8.50;80.20;;;;;;5050363;28;20442;-72
2020/12/15 02:23:34;;;;;;;4.75;4.10;;;8.50;80.50;;;;;;5050236;28;20471;-73
2020/12/15 02:26:02;;;;;;;5.55;4.20;;;8.50;81.30;;;;;;5050881;28;20377;-72
2020/12/15 02:28:28;;;;;;;4.95;4.45;;;8.60;79.70;;;;;;5050300;28;20936;-72
2020/12/15 02:30:54;;;;;;;6.75;4.50;;;8.50;80.00;;;;;;5050590;28;20401;-73
2020/12/15 02:33:19;;;;;;;6.07;4.60;;;8.50;82.20;;;;;;5051512;28;20381;-72
2020/12/15 02:35:45;;;;;;;5.50;4.53;;;8.50;81.50;;;;;;5053777;28;20397;-72
2020/12/15 02:38:10;;;;;;;4.87;4.37;;;8.50;80.60;;;;;;5035359;28;20798;-71
2020/12/15 02:40:36;;;;;;;6.33;3.90;;;8.60;80.40;;;;;;5053866;28;20755;-75
2020/12/15 02:43:02;;;;;;;5.10;4.35;;;8.60;80.90;;;;;;5039705;28;20395;-73
2020/12/15 02:45:27;;;;;;;5.70;4.57;;;8.50;81.90;;;;;;5033534;28;20435;-73
2020/12/15 02:47:53;;;;;;;5.90;4.90;;;8.50;81.70;;;;;;5033672;28;20387;-72
2020/12/15 02:50:23;;;;;;;5.20;4.30;;;8.50;82.50;;;;;;5051518;28;20870;-72
2020/12/15 02:52:49;;;;;;;4.68;3.95;;;8.50;82.80;;;;;;5053508;28;20405;-73
2020/12/15 02:55:15;;;;;;;6.93;4.70;;;8.50;82.10;;;;;;5051567;28;20389;-72
2020/12/15 02:57:41;;;;;;;7.32;4.70;;;8.60;81.70;;;;;;5050039;28;20439;-71
2020/12/15 03:00:11;;;;;;;6.10;4.82;;;8.60;82.10;;;;;;5049620;28;20385;-72
2020/12/15 03:02:37;;;;;;;6.13;5.00;;;8.60;81.60;;;;;;5050192;28;20477;-72
2020/12/15 03:05:04;;;;;;;6.32;4.95;;;8.60;81.90;;;;;;5050177;28;20514;-72
2020/12/15 03:07:30;;;;;;;8.35;5.05;;;8.70;82.10;;;;;;5049682;28;20380;-75
2020/12/15 03:09:55;;;;;;;5.73;5.10;;;8.60;82.00;;;;;;5050186;28;20416;-73
2020/12/15 03:12:22;;;;;;;9.00;4.73;;;8.50;83.50;;;;;;5049861;28;20882;-74
2020/12/15 03:14:48;;;;;;;5.90;4.75;;;8.50;84.60;;;;;;5049578;28;20530;-72
2020/12/15 03:17:15;;;;;;;6.43;4.80;;;8.50;84.80;;;;;;5049685;28;20385;-73
2020/12/15 03:19:41;;;;;;;8.85;5.25;;;8.50;84.30;;;;;;5050110;28;20393;-73
2020/12/15 03:22:06;;;;;;;7.40;5.33;;;8.50;85.20;;;;;;5049926;28;20393;-73
2020/12/15 03:24:32;;;;;;;7.17;4.77;;;8.50;85.60;;;;;;5049895;28;20381;-72
2020/12/15 03:26:58;;;;;;;6.57;4.82;;;8.50;84.20;;;;;;5049743;28;20404;-73
2020/12/15 03:29:23;;;;;;;8.52;5.20;;;8.40;85.10;;;;;;5051890;28;20866;-72
2020/12/15 03:31:49;;;;;;;5.60;4.82;;;8.40;85.60;;;;;;5053768;28;20405;-71
2020/12/15 03:34:14;;;;;;;6.97;4.97;;;8.50;85.20;;;;;;5054160;28;20409;-71
2020/12/15 03:36:40;;;;;;;7.20;5.13;;;8.50;84.30;;;;;;5053654;28;20976;-71
2020/12/15 03:39:06;;;;;;;7.53;5.38;;;8.50;84.50;;;;;;5053643;28;20754;-73
2020/12/15 03:41:32;;;;;;;7.20;5.20;;;8.40;86.00;;;;;;5052455;28;20866;-72
2020/12/15 03:43:58;;;;;;;5.78;5.28;;;8.40;86.60;;;;;;5015893;28;20453;-72
2020/12/15 03:46:23;;;;;;;6.57;5.10;;;8.30;86.40;;;;;;5033630;28;20734;-72
2020/12/15 03:48:49;;;;;;;6.43;4.70;;;8.30;86.30;;;;;;5018837;28;20885;-72
2020/12/15 03:51:15;;;;;;;5.57;4.90;;;8.30;86.10;;;;;;5033449;28;20782;-73
2020/12/15 03:53:40;;;;;;;7.50;4.97;;;8.50;85.40;;;;;;5033651;28;20395;-71
2020/12/15 03:56:06;;;;;;;6.33;5.43;;;8.50;84.80;;;;;;5033384;28;20938;-72
2020/12/15 03:58:31;;;;;;;8.00;5.10;;;8.50;84.50;;;;;;5033107;28;20383;-73
2020/12/15 04:00:57;;;;;;;7.07;5.07;;;8.60;83.60;;;;;;5033350;28;20437;-73
2020/12/15 04:03:22;;;;;;;7.15;5.10;;;8.60;82.50;;;;;;5044567;28;20398;-72
2020/12/15 04:05:48;;;;;;;8.77;5.32;;;8.60;83.00;;;;;;5053175;28;20462;-73
2020/12/15 04:08:14;;;;;;;7.07;5.35;;;8.60;83.50;;;;;;5052956;28;20377;-72
2020/12/15 04:10:39;;;;;;;7.22;4.60;;;8.60;83.30;;;;;;5053062;28;20898;-73
2020/12/15 04:13:05;;;;;;;6.27;5.23;;;8.60;82.20;;;;;;5052925;28;20934;-71
2020/12/15 04:15:30;;;;;;;6.40;4.70;;;8.60;82.60;;;;;;5052727;28;20389;-72
2020/12/15 04:17:56;;;;;;;7.17;5.00;;;8.60;81.90;;;;;;5052367;28;20397;-71
2020/12/15 04:20:21;;;;;;;9.07;5.00;;;8.50;82.50;;;;;;5052746;28;20807;-72
2020/12/15 04:22:47;;;;;;;6.83;4.93;;;8.50;83.20;;;;;;5052712;28;20947;-71
2020/12/15 04:25:12;;;;;;;10.70;5.50;;;8.50;83.60;;;;;;5052752;28;20963;-72
2020/12/15 04:27:38;;;;;;;7.80;5.00;;;8.40;84.10;;;;;;5052642;28;20871;-72
2020/12/15 04:30:05;;;;;;;8.35;5.88;;;8.40;84.70;;;;;;5052286;28;20393;-71
2020/12/15 04:32:31;;;;;;;10.20;5.30;;;8.50;85.10;;;;;;5052541;28;20414;-71
2020/12/15 04:34:57;;;;;;;7.47;5.57;;;8.50;84.10;;;;;;5052738;28;20385;-73
2020/12/15 04:37:22;;;;;;;6.50;5.10;;;8.50;85.20;;;;;;5052294;28;20431;-72
2020/12/15 04:39:48;;;;;;;6.30;5.43;;;8.50;85.50;;;;;;5052064;28;20723;-72
2020/12/15 04:42:14;;;;;;;9.77;5.37;;;8.50;85.10;;;;;;5051943;28;20447;-72
2020/12/15 04:44:40;;;;;;;9.50;5.55;;;8.50;85.20;;;;;;5051884;28;20408;-73
2020/12/15 04:47:11;;;;;;;7.67;5.40;;;8.60;84.50;;;;;;5052399;28;20862;-73
2020/12/15 04:49:47;;;;;;;5.90;5.30;;;8.50;85.40;;;;;;5052379;28;20474;-72
2020/12/15 04:52:13;;;;;;;8.52;5.75;;;8.50;85.90;;;;;;5052144;28;20451;-72
2020/12/15 04:54:45;;;;;;;8.52;5.65;;;8.60;86.20;;;;;;5052090;28;20378;-72
2020/12/15 04:57:17;;;;;;;9.70;5.47;;;8.60;85.00;;;;;;5051393;28;20547;-75
2020/12/15 04:59:46;;;;;;;6.07;5.10;;;8.60;85.00;;;;;;5034456;28;20689;-75
2020/12/15 05:02:12;;;;;;;8.63;5.43;;;8.60;84.50;;;;;;5052295;28;20518;-74
2020/12/15 05:04:41;;;;;;;8.40;5.50;;;8.60;85.20;;;;;;5051956;28;20425;-74
2020/12/15 05:07:08;;;;;;;7.53;5.20;;;8.70;84.50;;;;;;5051524;28;20412;-73
2020/12/15 05:09:35;;;;;;;8.20;5.32;;;8.60;84.60;;;;;;5051762;28;20406;-73
2020/12/15 05:12:01;;;;;;;11.20;5.63;;;8.60;85.00;;;;;;5051693;28;20908;-73
2020/12/15 05:14:27;;;;;;;9.15;5.72;;;8.60;85.70;;;;;;5051719;28;20381;-72
2020/12/15 05:16:53;;;;;;;7.27;6.17;;;8.70;85.50;;;;;;5051816;28;20762;-74
2020/12/15 05:19:19;;;;;;;6.40;5.53;;;8.70;85.80;;;;;;5051896;28;20926;-73
2020/12/15 05:21:57;;;;;;;8.00;5.27;;;8.70;86.30;;;;;;5051838;28;20472;-73
2020/12/15 05:24:26;;;;;;;10.10;5.95;;;8.80;85.00;;;;;;5050799;28;20420;-74
2020/12/15 05:26:53;;;;;;;7.18;5.80;;;8.80;84.50;;;;;;5051032;28;20392;-74
2020/12/15 05:29:20;;;;;;;7.85;5.80;;;8.90;84.30;;;;;;5051289;28;20481;-74
2020/12/15 05:31:46;;;;;;;7.93;5.72;;;8.90;84.20;;;;;;5051452;28;20875;-74
2020/12/15 05:34:13;;;;;;;11.30;6.63;;;8.90;84.10;;;;;;5051509;28;20381;-73
2020/12/15 05:36:50;;;;;;;9.18;6.10;;;8.90;83.70;;;;;;5051104;28;20381;-75
2020/12/15 05:39:15;;;;;;;9.48;6.80;;;9.00;83.70;;;;;;5033099;28;20402;-74
2020/12/15 05:41:41;;;;;;;10.65;6.57;;;9.00;83.90;;;;;;5051395;28;20385;-74
2020/12/15 05:44:07;;;;;;;8.88;6.00;;;9.00;84.10;;;;;;5051443;28;20397;-74
2020/12/15 05:46:33;;;;;;;7.97;6.40;;;9.00;83.80;;;;;;5050189;28;20393;-73
2020/12/15 05:49:06;;;;;;;9.63;6.28;;;8.90;85.30;;;;;;5050858;28;20393;-75
2020/12/15 05:51:42;;;;;;;8.07;6.63;;;8.90;86.20;;;;;;5050698;28;20409;-73
2020/12/15 05:54:12;;;;;;;7.35;5.70;;;8.80;87.00;;;;;;5050783;28;20373;-75
2020/12/15 05:56:39;;;;;;;7.75;6.40;;;8.90;86.90;;;;;;5050885;28;20388;-72
2020/12/15 05:59:32;;;;;;;7.55;6.53;;;8.80;87.50;;;;;;5050258;28;20517;-73
2020/12/15 06:02:05;;;;;;;10.73;6.68;;;8.90;87.30;;;;;;5049124;28;20420;-74
2020/12/15 06:04:32;;;;;;;11.90;6.85;;;8.90;87.80;;;;;;5050624;28;20469;-73
2020/12/15 06:07:00;;;;;;;10.07;6.53;;;8.90;88.60;;;;;;5050373;28;20431;-72
2020/12/15 06:09:28;;;;;;;9.27;6.75;;;8.90;87.30;;;;;;5050554;28;20478;-74
2020/12/15 06:11:53;;;;;;;8.73;6.90;;;8.90;88.20;;;;;;5050713;28;20402;-73
2020/12/15 06:14:24;;;;;;;11.02;6.70;;;9.00;87.50;;;;;;5032774;28;20492;-74
2020/12/15 06:16:50;;;;;;;11.57;6.20;;;9.10;86.00;;;;;;5053344;28;20385;-75
2020/12/15 06:19:18;;;;;;;11.98;6.80;;;9.10;86.60;;;;;;5054092;28;20405;-73
2020/12/15 06:21:56;;;;;;;10.30;6.55;;;9.10;87.10;;;;;;5054694;28;20377;-73
2020/12/15 06:24:38;;;;;;;9.03;6.60;;;9.10;87.70;;;;;;5053269;28;20476;-74
2020/12/15 06:27:04;;;;;;;8.70;7.07;;;9.20;85.70;;;;;;5032165;28;20408;-74
2020/12/15 06:29:31;;;;;;;9.05;7.22;;;9.10;86.90;;;;;;5051218;28;20511;-74
2020/12/15 06:31:58;;;;;;;10.37;7.47;;;9.10;88.00;;;;;;5051012;28;20409;-76
2020/12/15 06:34:31;;;;;;;10.70;7.45;;;9.10;87.80;;;;;;5050868;28;20462;-75
2020/12/15 06:36:58;;;;;;;8.20;7.18;;;9.10;88.40;;;;;;5050316;28;20451;-75
2020/12/15 06:39:30;;;;;;;11.70;7.13;;;9.20;88.80;;;;;;5051204;28;20536;-73
2020/12/15 06:42:00;;;;;;;9.63;6.90;;;9.20;88.20;;;;;;5051377;28;20459;-74
2020/12/15 06:44:44;;;;;;;9.20;7.00;;;9.20;89.20;;;;;;5051683;28;20428;-75
2020/12/15 06:47:09;;;;;;;12.60;7.50;;;9.30;88.40;;;;;;5050945;28;20874;-76
2020/12/15 06:49:37;;;;;;;12.47;7.33;;;9.20;88.70;;;;;;5051825;28;20400;-74
2020/12/15 06:52:07;;;;;;;9.20;7.13;;;9.30;88.80;;;;;;5052014;28;20429;-74
2020/12/15 06:54:36;;;;;;;11.05;7.90;;;9.30;88.70;;;;;;5051285;28;20424;-75
2020/12/15 06:57:11;;;;;;;12.65;7.70;;;9.30;88.30;;;;;;5051137;28;20381;-73
2020/12/15 06:59:39;;;;;;;10.70;7.53;;;9.30;87.50;;;;;;5051235;28;20758;-75
2020/12/15 07:02:14;;;;;;;12.02;8.00;;;9.30;88.40;;;;;;5051281;28;20385;-75
2020/12/15 07:04:47;;;;;;;11.27;8.25;;;9.30;89.20;;;;;;5055100;28;20432;-74
2020/12/15 07:07:15;;;;;;;11.70;8.07;;;9.20;89.80;;;;;;5056825;28;20389;-74
2020/12/15 07:09:41;;;;;;;12.30;8.55;;;9.20;90.10;;;;;;5040413;28;20398;-73
2020/12/15 07:12:12;;;;;;;12.27;8.60;;;9.20;90.60;;;;;;5055780;28;20475;-73
2020/12/15 07:14:38;;;;;;;11.73;9.30;;;9.20;91.40;;;;;;5055153;28;20417;-72
2020/12/15 07:17:04;;;;;;;11.93;8.65;;;9.20;91.30;;;;;;5054351;28;20381;-73
2020/12/15 07:19:30;;;;;;;12.27;8.80;;;9.20;92.30;;;;;;5057278;28;20392;-74
2020/12/15 07:21:55;;;;;;;14.00;9.33;;;9.20;91.90;;;;;;5058222;28;20413;-75
2020/12/15 07:24:21;;;;;;;10.80;9.23;;;9.20;92.50;;;;;;5056977;28;20825;-74
2020/12/15 07:26:47;;;;;;;11.77;8.80;;;9.30;91.40;;;;;;5052157;28;20416;-75
2020/12/15 07:29:17;;;;;;;17.13;10.15;;;9.20;91.40;;;;;;5054958;28;20476;-73
2020/12/15 07:31:43;;;;;;;15.05;10.18;;;9.30;91.30;;;;;;5054977;28;20802;-72
2020/12/15 07:34:13;;;;;;;15.07;10.30;;;9.30;91.00;;;;;;5054516;28;20799;-73
2020/12/15 07:36:41;;;;;;;14.65;10.13;;;9.30;91.60;;;;;;5054421;28;20417;-72
2020/12/15 07:39:07;;;;;;;17.60;10.70;;;9.30;92.20;;;;;;5053816;28;20496;-73
2020/12/15 07:41:36;;;;;;;21.40;10.48;;;9.30;91.40;;;;;;5053785;28;21010;-72
2020/12/15 07:44:10;;;;;;;14.40;10.30;;;9.40;90.90;;;;;;5054790;28;20465;-73
2020/12/15 07:46:46;;;;;;;16.33;11.40;;;9.30;91.90;;;;;;5053683;28;20472;-73
2020/12/15 07:49:13;;;;;;;17.80;10.85;;;9.30;92.60;;;;;;5055102;28;20444;-72
2020/12/15 07:51:39;;;;;;;20.55;11.38;;;9.20;92.70;;;;;;5055043;28;20928;-73
2020/12/15 07:54:05;;;;;;;16.13;10.77;;;9.30;92.40;;;;;;5052849;28;20952;-73
2020/12/15 07:56:31;;;;;;;16.40;12.00;;;9.30;93.00;;;;;;5055115;28;20409;-73
2020/12/15 07:58:58;;;;;;;21.95;12.52;;;9.30;92.90;;;;;;5053910;28;20412;-72
2020/12/15 08:01:31;;;;;;;18.60;11.90;;;9.20;94.10;;;;;;5052165;28;20492;-72
2020/12/15 08:04:11;;;;;;;15.85;11.23;;;9.40;92.30;;;;;;5052918;28;20427;-73
2020/12/15 08:06:42;;;;;;;15.70;11.70;;;9.40;91.80;;;;;;5050667;28;20397;-72
2020/12/15 08:09:10;;;;;;;17.27;11.73;;;9.40;91.70;;;;;;5052069;28;20405;-72
2020/12/15 08:11:36;;;;;;;17.55;11.55;;;9.40;92.40;;;;;;5051980;28;20615;-73
2020/12/15 08:14:04;;;;;;;14.53;11.40;;;9.40;92.10;;;;;;5051327;28;20468;-73
2020/12/15 08:16:29;;;;;;;16.38;11.40;;;9.50;90.60;;;;;;5052346;28;20868;-73
2020/12/15 08:19:02;;;;;;;16.92;11.52;;;9.50;90.30;;;;;;5052090;28;20432;-72
2020/12/15 08:21:48;;;;;;;16.98;11.88;;;9.40;91.40;;;;;;5051696;28;20864;-74
2020/12/15 08:24:22;;;;;;;16.17;11.00;;;9.50;91.40;;;;;;5045968;28;20846;-73
2020/12/15 08:26:47;;;;;;;15.27;11.85;;;9.50;90.90;;;;;;5051670;28;20498;-72
2020/12/15 08:29:14;;;;;;;18.02;11.90;;;9.50;91.30;;;;;;5050628;28;20413;-72
2020/12/15 08:31:44;;;;;;;15.95;11.02;;;9.50;91.40;;;;;;5051894;28;20471;-73
2020/12/15 08:34:16;;;;;;;16.15;11.70;;;9.50;91.90;;;;;;5051424;28;20810;-72
2020/12/15 08:36:50;;;;;;;21.15;12.48;;;9.60;90.90;;;;;;5051839;28;20400;-72
2020/12/15 08:39:21;;;;;;;19.10;12.57;;;9.70;90.00;;;;;;5051654;28;20432;-72
2020/12/15 08:41:58;;;;;;;19.23;12.55;;;9.60;89.90;;;;;;5051140;28;20409;-73
2020/12/15 08:44:25;;;;;;;47.22;28.27;;;9.60;90.10;;;;;;5050460;28;20401;-72
2020/12/15 08:46:53;;;;;;;45.13;28.60;;;9.70;91.00;;;;;;5051291;28;20397;-73
2020/12/15 08:49:19;;;;;;;44.17;30.13;;;9.80;90.00;;;;;;5051354;28;20443;-73
2020/12/15 08:51:50;;;;;;;21.77;13.75;;;9.90;89.40;;;;;;5051326;28;20417;-72
2020/12/15 08:54:16;;;;;;;22.33;14.27;;;9.90;88.20;;;;;;5051584;28;20394;-73
2020/12/15 08:56:43;;;;;;;18.88;13.35;;;9.90;88.00;;;;;;5051236;28;20492;-72
2020/12/15 08:59:13;;;;;;;20.25;14.38;;;10.00;86.90;;;;;;5051078;28;20487;-73
2020/12/15 09:01:40;;;;;;;21.05;14.77;;;10.00;85.80;;;;;;5051239;28;20390;-72
2020/12/15 09:04:06;;;;;;;48.35;31.65;;;10.00;86.30;;;;;;5051350;28;20401;-73
2020/12/15 09:06:38;;;;;;;18.83;12.57;;;9.90;87.50;;;;;;5050363;28;20409;-73
2020/12/15 09:09:06;;;;;;;18.55;12.15;;;9.90;87.70;;;;;;5051410;28;20382;-72
2020/12/15 09:11:32;;;;;;;19.67;12.95;;;9.90;87.60;;;;;;5025609;28;20502;-73
2020/12/15 09:14:00;;;;;;;15.70;12.68;;;9.90;88.40;;;;;;5050859;28;20895;-73
2020/12/15 09:16:34;;;;;;;15.80;12.80;;;9.80;89.20;;;;;;5050923;28;20448;-72
2020/12/15 09:19:14;;;;;;;17.92;13.30;;;9.80;88.60;;;;;;5043730;28;20382;-72
2020/12/15 09:21:41;;;;;;;19.55;13.40;;;9.80;89.30;;;;;;5049872;28;20459;-73
2020/12/15 09:24:09;;;;;;;15.73;12.90;;;9.80;90.20;;;;;;5050625;28;20405;-72
2020/12/15 09:26:37;;;;;;;22.42;13.88;;;9.80;90.30;;;;;;5050064;28;20450;-74
2020/12/15 09:29:09;;;;;;;18.92;13.60;;;10.00;89.20;;;;;;5050467;28;20401;-73
2020/12/15 09:31:35;;;;;;;19.20;13.77;;;10.00;87.50;;;;;;5050575;28;20766;-73
2020/12/15 09:34:00;;;;;;;18.47;13.17;;;10.00;88.20;;;;;;5050378;28;20400;-73
2020/12/15 09:36:26;;;;;;;19.90;14.00;;;10.00;88.40;;;;;;5050840;28;20870;-73
2020/12/15 09:38:52;;;;;;;19.30;13.40;;;10.00;88.70;;;;;;5050502;28;20393;-73
2020/12/15 09:41:17;;;;;;;19.47;13.83;;;10.10;87.20;;;;;;5051019;28;20390;-73
2020/12/15 09:43:43;;;;;;;16.90;12.93;;;10.10;87.30;;;;;;5044881;28;20404;-73
2020/12/15 09:46:09;;;;;;;19.20;14.07;;;10.10;87.40;;;;;;5050269;28;20401;-74
2020/12/15 09:48:34;;;;;;;16.37;12.73;;;10.10;87.50;;;;;;5032424;28;20476;-73
2020/12/15 09:51:00;;;;;;;19.30;13.90;;;10.20;86.10;;;;;;5032404;28;20746;-73
2020/12/15 09:53:26;;;;;;;17.23;13.70;;;10.20;86.20;;;;;;5051783;28;20802;-72
2020/12/15 09:55:52;;;;;;;17.30;13.45;;;10.20;86.20;;;;;;5051141;28;20483;-73
2020/12/15 09:58:18;;;;;;;17.67;13.17;;;10.20;85.50;;;;;;5051109;28;20377;-73
2020/12/15 10:00:43;;;;;;;19.90;13.47;;;10.10;87.00;;;;;;5052090;28;20396;-74
2020/12/15 10:03:09;;;;;;;19.80;13.37;;;10.10;87.80;;;;;;5050558;28;20456;-74
2020/12/15 10:05:34;;;;;;;17.23;12.70;;;10.10;88.60;;;;;;5052869;28;20393;-73
2020/12/15 10:08:00;;;;;;;16.97;13.20;;;10.20;88.10;;;;;;5050786;28;20564;-72
2020/12/15 10:10:25;;;;;;;17.25;13.02;;;10.20;86.50;;;;;;5051035;28;20685;-74
2020/12/15 10:12:51;;;;;;;17.38;13.10;;;10.20;86.40;;;;;;5050369;28;20405;-74
2020/12/15 10:15:16;;;;;;;23.00;14.65;;;10.30;86.60;;;;;;5051080;28;20459;-74
2020/12/15 10:17:42;;;;;;;18.38;13.55;;;10.30;87.70;;;;;;5052372;28;20485;-74
2020/12/15 10:20:08;;;;;;;18.80;14.10;;;10.30;87.10;;;;;;5051819;28;20400;-74
2020/12/15 10:22:34;;;;;;;16.35;12.95;;;10.30;86.50;;;;;;5052699;28;20822;-74
2020/12/15 10:25:00;;;;;;;18.52;12.35;;;10.40;86.80;;;;;;5052897;28;20657;-74
2020/12/15 10:27:25;;;;;;;18.55;13.43;;;10.40;85.40;;;;;;5052202;28;20437;-76
2020/12/15 10:29:51;;;;;;;20.63;13.10;;;10.40;86.60;;;;;;5051695;28;20397;-75
2020/12/15 10:32:17;;;;;;;18.50;13.70;;;10.50;84.30;;;;;;5053444;28;20512;-75
2020/12/15 10:34:42;;;;;;;19.27;12.67;;;10.50;85.20;;;;;;5049391;28;20393;-74
2020/12/15 10:37:08;;;;;;;16.60;11.90;;;10.60;84.30;;;;;;5049330;28;20416;-76
2020/12/15 10:39:34;;;;;;;16.80;12.80;;;10.60;83.10;;;;;;5025849;28;20383;-75
2020/12/15 10:41:59;;;;;;;17.67;12.30;;;10.60;83.60;;;;;;5049662;28;20389;-75
2020/12/15 10:44:25;;;;;;;16.30;11.40;;;10.60;83.90;;;;;;5050951;28;20442;-74
2020/12/15 10:46:50;;;;;;;16.53;12.43;;;10.60;82.90;;;;;;5052266;28;20444;-73
2020/12/15 10:49:17;;;;;;;17.80;12.37;;;10.80;82.60;;;;;;5055376;28;20419;-74
2020/12/15 10:51:46;;;;;;;18.67;12.50;;;10.70;81.30;;;;;;5056433;28;20740;-76
2020/12/15 10:54:12;;;;;;;16.75;11.32;;;10.70;82.50;;;;;;5056922;28;20472;-76
2020/12/15 10:56:38;;;;;;;15.25;11.95;;;10.80;82.00;;;;;;5054529;28;20810;-74
2020/12/15 10:59:03;;;;;;;14.57;11.23;;;10.80;81.40;;;;;;5026163;28;20385;-74
2020/12/15 11:01:29;;;;;;;17.80;11.67;;;10.90;81.10;;;;;;5048884;28;20401;-76
2020/12/15 11:03:54;;;;;;;14.93;11.47;;;10.90;80.20;;;;;;5049185;28;20393;-74
2020/12/15 11:06:23;;;;;;;16.03;12.30;;;10.90;80.40;;;;;;5049414;28;20965;-74
2020/12/15 11:08:48;;;;;;;14.18;11.32;;;11.00;79.10;;;;;;5048665;28;20457;-74
2020/12/15 11:11:14;;;;;;;16.73;11.88;;;11.10;78.50;;;;;;5047819;28;20406;-75
2020/12/15 11:13:39;;;;;;;16.60;12.27;;;11.00;78.10;;;;;;5049346;28;20389;-74
2020/12/15 11:16:05;;;;;;;18.05;11.70;;;10.90;79.70;;;;;;5049786;28;20446;-74
2020/12/15 11:18:31;;;;;;;13.57;11.07;;;11.00;79.50;;;;;;5048743;28;20404;-75
2020/12/15 11:20:56;;;;;;;15.57;12.13;;;10.90;78.40;;;;;;5049350;28;20484;-73
2020/12/15 11:23:22;;;;;;;16.02;12.00;;;10.80;80.40;;;;;;5048844;28;20393;-75
2020/12/15 11:25:49;;;;;;;16.88;12.02;;;10.70;81.20;;;;;;5050112;28;20405;-74
2020/12/15 11:28:15;;;;;;;16.80;12.50;;;10.70;82.00;;;;;;5055419;28;20393;-74
2020/12/15 11:30:41;;;;;;;16.17;12.27;;;10.60;82.90;;;;;;5056574;28;20480;-74
2020/12/15 11:33:06;;;;;;;19.30;12.60;;;10.60;83.70;;;;;;5055854;28;20459;-73
2020/12/15 11:35:34;;;;;;;16.73;13.10;;;10.50;84.00;;;;;;5057159;28;20393;-74
2020/12/15 11:38:00;;;;;;;18.58;13.20;;;10.60;84.20;;;;;;5055859;28;20393;-74
2020/12/15 11:40:26;;;;;;;17.63;13.13;;;10.60;84.00;;;;;;5056235;28;20413;-74
2020/12/15 11:42:55;;;;;;;18.17;12.47;;;10.60;83.70;;;;;;5055537;28;20429;-75
2020/12/15 11:45:22;;;;;;;16.17;12.48;;;10.50;85.00;;;;;;5038492;28;20397;-72
2020/12/15 11:47:47;;;;;;;18.80;13.07;;;10.50;85.10;;;;;;5053777;28;20434;-75
2020/12/15 11:50:13;;;;;;;20.38;13.00;;;10.50;85.30;;;;;;5052691;28;20385;-73
2020/12/15 11:52:39;;;;;;;22.47;13.20;;;10.50;86.10;;;;;;5054860;28;20991;-73
2020/12/15 11:55:04;;;;;;;17.70;12.87;;;10.50;87.50;;;;;;5053680;28;20401;-72
2020/12/15 11:57:30;;;;;;;17.63;13.02;;;10.50;87.10;;;;;;5053680;28;20696;-72
2020/12/15 11:59:55;;;;;;;19.60;13.90;;;10.40;87.70;;;;;;5053792;28;20394;-73
2020/12/15 12:02:21;;;;;;;18.50;13.30;;;10.40;88.30;;;;;;5053959;28;20404;-71
2020/12/15 12:04:47;;;;;;;19.67;13.60;;;10.40;87.30;;;;;;5053895;28;20476;-73
2020/12/15 12:07:12;;;;;;;20.70;13.93;;;10.40;88.10;;;;;;5053913;28;20823;-73
2020/12/15 12:09:38;;;;;;;20.17;14.57;;;10.40;88.70;;;;;;5053723;28;20874;-72
2020/12/15 12:12:05;;;;;;;20.77;14.40;;;10.40;89.20;;;;;;5053489;28;20405;-73
2020/12/15 12:14:30;;;;;;;21.50;15.75;;;10.40;89.50;;;;;;5053334;28;20377;-75
2020/12/15 12:16:56;;;;;;;23.37;14.70;;;10.50;89.80;;;;;;5052475;28;20420;-73
2020/12/15 12:19:22;;;;;;;22.07;15.70;;;10.60;88.20;;;;;;5052832;28;20815;-74
2020/12/15 12:21:47;;;;;;;22.70;15.17;;;10.60;88.50;;;;;;5052779;28;20458;-74
2020/12/15 12:24:13;;;;;;;22.00;15.43;;;10.60;88.20;;;;;;5052079;28;20882;-72
2020/12/15 12:26:39;;;;;;;20.45;14.88;;;10.60;88.70;;;;;;5052089;28;20405;-73
2020/12/15 12:29:04;;;;;;;20.00;14.90;;;10.60;88.40;;;;;;5052265;28;20447;-75
2020/12/15 12:31:30;;;;;;;20.97;14.90;;;10.60;88.10;;;;;;5051208;28;20421;-73
2020/12/15 12:33:56;;;;;;;20.83;15.18;;;10.60;88.10;;;;;;5052491;28;20389;-73
2020/12/15 12:36:22;;;;;;;23.00;16.02;;;10.50;88.40;;;;;;5052321;28;20401;-73
2020/12/15 12:38:48;;;;;;;24.15;15.40;;;10.50;88.60;;;;;;5050814;28;20405;-73
2020/12/15 12:41:14;;;;;;;21.07;15.50;;;10.50;88.90;;;;;;5046116;28;20477;-73
2020/12/15 12:43:40;;;;;;;23.33;15.90;;;10.40;89.60;;;;;;5051495;28;20406;-72
2020/12/15 12:46:06;;;;;;;27.67;15.80;;;10.40;90.00;;;;;;5052300;28;20404;-73